Time;durP1;ratioP1;P1;durP2;ratioP2;P2;SDS_P1;SDS_P2;PMS_P1;PMS_P2;Temp;Humidity;BMP_temperature;BMP_pressure;BME280_temperature;BME280_humidity;BME280_pressure;Samples;Min_cycle;Max_cycle;Signal;HPM_P1;HPM_P2
2021/10/22 00:06:25;;;;;;;9.60;1.65;;;;;;;8.28;76.86;99404.38;6750730;86;98596;-85
2021/10/22 00:16:27;;;;;;;7.47;1.70;;;;;;;8.26;76.16;99420.44;6737962;86;98417;-86
2021/10/22 00:26:28;;;;;;;7.07;1.50;;;;;;;8.25;76.04;99431.20;6745587;86;98020;-85
2021/10/22 00:36:28;;;;;;;8.35;1.67;;;;;;;8.20;76.17;99452.13;6745624;86;98528;-84
2021/10/22 00:46:30;;;;;;;9.23;1.43;;;;;;;8.10;75.75;99473.38;6737279;86;98579;-83
2021/10/22 00:56:34;;;;;;;11.77;3.10;;;;;;;8.01;75.89;99498.18;6716199;86;98101;-87
2021/10/22 01:06:39;;;;;;;12.65;1.52;;;;;;;7.89;76.20;99499.84;6808147;84;196162;-86
2021/10/22 01:16:40;;;;;;;6.33;1.57;;;;;;;7.85;76.48;99508.64;6827879;85;99007;-84
2021/10/22 01:26:42;;;;;;;8.63;1.63;;;;;;;7.81;76.08;99523.65;6811867;85;112969;-87
2021/10/22 01:36:43;;;;;;;9.25;1.45;;;;;;;7.75;76.30;99532.02;6811630;84;98798;-88
2021/10/22 01:46:44;;;;;;;10.93;1.63;;;;;;;7.67;76.29;99533.71;6807601;84;98593;-87
2021/10/22 01:56:45;;;;;;;9.20;2.03;;;;;;;7.53;76.40;99539.86;6810948;84;98257;-82
2021/10/22 02:06:48;;;;;;;9.10;1.42;;;;;;;7.36;76.65;99545.95;6819101;84;98060;-85
2021/10/22 02:16:49;;;;;;;8.60;2.23;;;;;;;7.23;77.06;99561.09;6829019;84;97897;-86
2021/10/22 02:26:49;;;;;;;11.97;1.63;;;;;;;7.08;77.31;99579.88;6815518;84;98566;-85
2021/10/22 02:36:50;;;;;;;9.50;1.62;;;;;;;7.08;77.31;99579.88;6819475;84;98520;-87
2021/10/22 02:46:51;;;;;;;10.30;2.30;;;;;;;7.07;77.89;99583.77;6822450;84;98317;-87
2021/10/22 02:56:52;;;;;;;10.17;1.57;;;;;;;7.02;78.07;99599.15;6831287;84;98893;-86
2021/10/22 03:06:53;;;;;;;7.17;1.80;;;;;;;6.99;78.20;99595.78;6814503;85;98779;-86
2021/10/22 03:16:53;;;;;;;11.23;1.50;;;;;;;6.98;78.47;99614.72;6815577;85;98210;-86
2021/10/22 03:26:54;;;;;;;14.43;1.98;;;;;;;6.99;78.57;99627.23;6805083;85;98066;-87
2021/10/22 03:36:55;;;;;;;10.20;2.10;;;;;;;6.96;78.85;99639.50;6802484;85;98266;-87
2021/10/22 03:46:56;;;;;;;11.43;1.63;;;;;;;6.90;79.07;99635.52;6804684;85;98235;-88
2021/10/22 03:56:57;;;;;;;9.28;1.55;;;;;;;6.85;79.46;99632.55;6784096;85;98592;-85
2021/10/22 04:07:00;;;;;;;10.50;2.73;;;;;;;6.80;79.71;99656.68;6780992;85;98650;-85
2021/10/22 04:17:00;;;;;;;10.60;2.20;;;;;;;6.73;80.03;99660.13;6799477;85;98566;-88
2021/10/22 04:27:01;;;;;;;9.63;2.00;;;;;;;6.66;80.08;99660.60;6797325;85;109767;-85
2021/10/22 04:47:21;;;;;;;16.97;2.77;;;;;;;6.54;80.24;99680.73;6790543;85;98770;-86
2021/10/22 04:57:22;;;;;;;10.70;1.93;;;;;;;6.48;80.46;99678.66;6802994;85;98160;-85
2021/10/22 05:07:22;;;;;;;9.97;2.00;;;;;;;6.43;80.73;99687.20;6798421;85;98170;-86
2021/10/22 05:17:23;;;;;;;8.83;1.93;;;;;;;6.36;80.85;99693.91;6795070;85;98045;-86
2021/10/22 05:27:24;;;;;;;16.33;5.17;;;;;;;6.32;81.20;99691.12;6795227;85;98417;-83
2021/10/22 05:37:25;;;;;;;10.27;2.20;;;;;;;6.29;81.70;99693.80;6795781;85;98170;-83
2021/10/22 05:47:26;;;;;;;12.43;2.50;;;;;;;6.28;82.37;99709.39;6790797;85;98119;-83
2021/10/22 05:57:27;;;;;;;19.47;4.83;;;;;;;6.25;82.01;99712.88;6790050;85;98719;-83
2021/10/22 06:07:27;;;;;;;13.10;3.27;;;;;;;6.22;82.27;99727.84;6845074;84;98592;-84
2021/10/22 06:17:28;;;;;;;11.55;2.30;;;;;;;6.21;82.27;99742.07;6845374;84;98224;-84
2021/10/22 06:27:29;;;;;;;11.27;3.60;;;;;;;6.23;82.42;99750.68;6846321;84;98676;-84
2021/10/22 06:37:37;;;;;;;15.43;3.60;;;;;;;6.32;82.52;99750.47;6848006;84;98450;-87
2021/10/22 06:47:38;;;;;;;10.43;2.83;;;;;;;6.46;82.19;99758.32;6845765;84;98789;-84
2021/10/22 06:57:41;;;;;;;11.40;2.90;;;;;;;6.66;81.88;99751.59;6845835;84;100433;-86
2021/10/22 07:07:41;;;;;;;18.30;2.73;;;;;;;6.80;81.32;99742.25;6853034;84;98955;-84
2021/10/22 07:17:44;;;;;;;11.53;2.83;;;;;;;6.94;81.09;99747.14;6849918;84;129378;-85
2021/10/22 07:27:46;;;;;;;10.28;1.75;;;;;;;7.08;80.77;99767.28;6843839;84;100130;-85
2021/10/22 07:37:48;;;;;;;9.10;2.10;;;;;;;7.26;80.50;99765.56;6849534;84;98775;-84
2021/10/22 07:47:48;;;;;;;14.07;2.63;;;;;;;7.50;79.92;99766.48;6851062;84;98051;-84
2021/10/22 07:57:50;;;;;;;10.20;2.25;;;;;;;7.80;79.40;99780.16;6819690;84;1503001;-86
2021/10/22 08:07:51;;;;;;;15.47;2.53;;;;;;;7.95;78.76;99790.89;6849840;84;99040;-84
2021/10/22 08:17:52;;;;;;;14.50;2.50;;;;;;;8.19;78.23;99793.70;6834655;84;98157;-84
2021/10/22 08:27:53;;;;;;;12.10;2.37;;;;;;;8.34;77.53;99784.48;6828225;84;98713;-84
2021/10/22 08:37:55;;;;;;;9.63;2.45;;;;;;;8.75;76.58;99781.89;6851287;84;98110;-86
2021/10/22 08:47:56;;;;;;;20.07;2.97;;;;;;;9.10;75.59;99767.06;6842714;84;98075;-88
2021/10/22 08:57:57;;;;;;;10.53;2.30;;;;;;;9.31;73.34;99778.95;6851736;84;98766;-83
2021/10/22 09:07:58;;;;;;;11.10;2.37;;;;;;;9.35;73.43;99771.53;6793567;85;98242;-85
2021/10/22 09:18:07;;;;;;;13.40;2.65;;;;;;;9.34;73.10;99770.53;6798121;85;98469;-87
2021/10/22 09:28:06;;;;;;;10.03;2.53;;;;;;;9.47;72.48;99750.59;6791777;85;98911;-85
2021/10/22 09:38:17;;;;;;;12.80;2.13;;;;;;;9.52;71.67;99761.78;6795629;85;98204;-84
2021/10/22 09:48:31;;;;;;;5.93;1.67;;;;;;;9.52;71.06;99783.19;6784435;85;98193;-85
2021/10/22 09:58:33;;;;;;;;;;;;;;;9.55;70.02;99804.38;6791094;85;98433;-86
2021/10/22 10:08:39;;;;;;;10.27;1.97;;;;;;;9.55;69.66;99752.18;6803738;85;84718;-84
2021/10/22 10:18:48;;;;;;;14.10;2.57;;;;;;;9.61;69.59;99747.12;6795823;85;98484;-87
2021/10/22 10:28:51;;;;;;;10.03;2.20;;;;;;;9.72;69.65;99731.45;6744501;86;107213;-86
2021/10/22 10:38:52;;;;;;;13.43;3.00;;;;;;;9.80;68.84;99722.05;6700515;86;182465;-88
2021/10/22 10:48:52;;;;;;;10.35;1.77;;;;;;;9.82;67.39;99718.34;6688831;87;98380;-87
2021/10/22 10:58:53;;;;;;;16.90;2.50;;;;;;;9.94;67.21;99719.34;6757213;84;98780;-86
2021/10/22 11:08:54;;;;;;;8.70;2.30;;;;;;;9.95;66.43;99719.54;6839684;83;99018;-85
2021/10/22 11:19:00;;;;;;;9.07;2.00;;;;;;;9.95;66.77;99703.05;6911815;84;98562;-86
2021/10/22 11:29:17;;;;;;;11.07;2.70;;;;;;;9.93;66.70;99680.67;6912341;83;98567;-84
2021/10/22 11:39:26;;;;;;;12.90;2.70;;;;;;;9.89;66.36;99669.68;6923437;83;98705;-85
2021/10/22 11:49:31;;;;;;;10.27;2.03;;;;;;;9.83;66.02;99663.57;6923802;84;98379;-84
2021/10/22 11:59:32;;;;;;;11.43;2.53;;;;;;;9.81;65.31;99655.72;6903998;83;98689;-87
2021/10/22 12:09:43;;;;;;;10.37;2.67;;;;;;;9.86;65.44;99651.81;6904396;83;98655;-84
2021/10/22 12:19:46;;;;;;;10.23;2.77;;;;;;;9.86;64.46;99640.22;6918060;83;111358;-84
2021/10/22 12:29:55;;;;;;;8.50;2.20;;;;;;;9.86;64.39;99629.83;6911753;84;171769;-87
2021/10/22 12:39:56;;;;;;;13.60;2.70;;;;;;;9.97;64.34;99618.25;6918844;83;98654;-85
2021/10/22 12:49:57;;;;;;;9.43;2.10;;;;;;;10.04;64.05;99607.28;6926206;83;98287;-86
2021/10/22 13:00:21;;;;;;;7.53;2.17;;;;;;;10.11;63.74;99601.20;6916307;83;99987;-86
2021/10/22 13:10:32;;;;;;;9.37;2.20;;;;;;;10.19;64.51;99611.61;6823024;84;98965;-89
2021/10/22 13:20:38;;;;;;;11.97;2.60;;;;;;;10.15;63.59;99577.22;6917328;84;98700;-85
2021/10/22 13:30:43;;;;;;;11.80;2.20;;;;;;;10.16;63.46;99580.77;6917259;83;98850;-84
2021/10/22 13:40:43;;;;;;;13.00;2.67;;;;;;;10.11;64.94;99574.28;6915475;83;98768;-86
2021/10/22 13:50:45;;;;;;;12.93;2.17;;;;;;;10.02;65.46;99554.04;6889258;84;98923;-85
2021/10/22 14:00:48;;;;;;;13.07;3.73;;;;;;;10.02;65.77;99558.16;6913654;83;98934;-86
2021/10/22 14:10:49;;;;;;;11.60;2.60;;;;;;;9.98;66.36;99547.75;6863073;83;99058;-85
2021/10/22 14:31:12;;;;;;;8.50;2.33;;;;;;;9.95;66.06;99534.81;6833611;83;132657;-85
2021/10/22 14:41:13;;;;;;;12.10;2.30;;;;;;;9.89;67.24;99555.62;6836537;85;98352;-82
2021/10/22 14:51:21;;;;;;;16.03;2.83;;;;;;;9.62;70.40;99542.08;6841318;85;98718;-82
2021/10/22 15:01:22;;;;;;;18.83;3.70;;;;;;;9.32;72.23;99539.49;6838901;84;98762;-83
2021/10/22 15:11:22;;;;;;;13.03;2.90;;;;;;;9.15;73.22;99540.22;6841285;85;106701;-85
2021/10/22 15:21:24;;;;;;;10.60;3.13;;;;;;;9.01;74.61;99532.76;6840343;85;126419;-83
2021/10/22 15:31:25;;;;;;;11.50;3.40;;;;;;;8.89;75.50;99541.31;6842994;85;98225;-83
2021/10/22 15:41:26;;;;;;;10.37;2.30;;;;;;;8.85;75.62;99537.80;6847321;84;98525;-83
2021/10/22 15:51:27;;;;;;;10.53;2.67;;;;;;;8.80;76.47;99558.75;6846113;84;125176;-81
2021/10/22 16:01:29;;;;;;;10.90;2.15;;;;;;;8.72;77.55;99581.05;6841736;85;98760;-83
2021/10/22 16:11:38;;;;;;;14.63;2.87;;;;;;;8.56;80.01;99590.94;6964591;83;98387;-84
2021/10/22 16:21:32;;;;;;;12.33;2.93;;;;;;;8.39;81.52;99608.07;6963250;82;98535;-85
2021/10/22 16:31:33;;;;;;;10.60;2.83;;;;;;;8.28;83.17;99618.78;6954575;82;98188;-85
2021/10/22 16:41:35;;;;;;;12.87;3.17;;;;;;;8.14;84.77;99630.39;6956641;82;98564;-87
2021/10/22 16:51:36;;;;;;;14.97;4.63;;;;;;;8.08;85.68;99657.91;6971573;82;98098;-88
2021/10/22 17:01:36;;;;;;;6.37;2.20;;;;;;;7.97;87.87;99688.55;6963996;82;98152;-86
2021/10/22 17:11:39;;;;;;;5.27;1.40;;;;;;;7.77;88.29;99675.44;6962725;82;107850;-89
2021/10/22 17:21:39;;;;;;;3.70;1.40;;;;;;;7.36;86.93;99660.14;6960089;82;98205;-92
2021/10/22 17:31:40;;;;;;;4.47;1.43;;;;;;;7.17;88.63;99687.09;6968244;82;97878;-92
2021/10/22 17:41:42;;;;;;;8.40;2.40;;;;;;;7.15;89.47;99702.30;6964561;82;98102;-90
2021/10/22 17:51:42;;;;;;;5.43;2.03;;;;;;;7.19;90.76;99717.59;6972836;82;98291;-90
2021/10/22 18:01:45;;;;;;;6.93;1.77;;;;;;;7.25;91.32;99727.65;6966480;82;127725;-88
2021/10/22 18:11:45;;;;;;;3.55;1.35;;;;;;;7.24;90.79;99735.63;6881489;83;98184;-86
2021/10/22 18:21:47;;;;;;;3.53;1.33;;;;;;;7.10;89.71;99743.06;6858746;84;98036;-86
2021/10/22 18:31:49;;;;;;;3.03;1.30;;;;;;;6.92;89.31;99774.09;6870053;84;98203;-88
2021/10/22 18:41:50;;;;;;;3.20;1.40;;;;;;;6.72;89.81;99804.81;6871550;84;98090;-86
2021/10/22 18:51:53;;;;;;;3.83;1.35;;;;;;;6.66;90.87;99822.69;6876342;84;98545;-87
2021/10/22 19:01:55;;;;;;;4.53;1.70;;;;;;;6.68;91.35;99846.93;6872968;84;98548;-85
2021/10/22 19:11:56;;;;;;;6.33;2.33;;;;;;;6.72;91.71;99864.97;6853826;84;98202;-86
2021/10/22 19:21:57;;;;;;;6.75;2.30;;;;;;;6.76;92.28;99873.26;6843663;85;98443;-86
2021/10/22 19:31:58;;;;;;;6.83;1.87;;;;;;;6.79;92.34;99882.09;6846458;85;98193;-86
2021/10/22 19:41:58;;;;;;;6.80;2.13;;;;;;;6.85;92.79;99906.04;6842692;85;97912;-85
2021/10/22 19:51:59;;;;;;;6.93;2.70;;;;;;;6.89;93.27;99912.94;6845754;84;97847;-86
2021/10/22 20:02:00;;;;;;;6.20;2.27;;;;;;;6.92;93.00;99921.80;6819266;85;98254;-86
2021/10/22 20:12:01;;;;;;;5.23;2.10;;;;;;;6.92;92.67;99933.51;6862330;84;98332;-84
2021/10/22 20:22:03;;;;;;;6.90;3.27;;;;;;;6.95;92.55;99957.41;6870335;84;98373;-85
2021/10/22 20:32:10;;;;;;;5.27;2.30;;;;;;;6.98;92.98;99970.34;6873754;84;97844;-86
2021/10/22 20:42:10;;;;;;;15.80;4.30;;;;;;;7.00;92.49;100002.25;6870275;84;98146;-86
2021/10/22 21:02:30;;;;;;;15.33;3.57;;;;;;;6.88;91.74;100047.53;6861375;84;113445;-86
2021/10/22 21:12:31;;;;;;;8.90;2.80;;;;;;;6.83;92.18;100067.55;6864314;84;98436;-85
2021/10/22 21:22:32;;;;;;;5.33;1.70;;;;;;;6.84;91.78;100089.65;6878785;84;98010;-86
2021/10/22 21:32:34;;;;;;;11.50;2.40;;;;;;;6.71;91.20;100096.42;6889999;84;98031;-84
2021/10/22 21:42:35;;;;;;;6.93;1.60;;;;;;;6.55;91.14;100111.49;6873278;84;98264;-85
2021/10/22 21:52:37;;;;;;;4.93;1.70;;;;;;;6.50;91.02;100115.88;6873326;84;98000;-84
2021/10/22 22:02:42;;;;;;;13.93;3.10;;;;;;;6.49;91.04;100131.28;6873153;84;98038;-84
2021/10/22 22:12:43;;;;;;;4.47;1.20;;;;;;;6.50;91.31;100143.80;6878050;83;98690;-84
2021/10/22 22:22:45;;;;;;;7.60;2.37;;;;;;;6.49;90.49;100161.36;6805159;85;98068;-85
2021/10/22 22:32:47;;;;;;;4.80;1.57;;;;;;;6.48;90.56;100171.48;6927280;83;98038;-84
2021/10/22 22:42:48;;;;;;;5.30;1.37;;;;;;;6.48;90.13;100185.72;6948429;83;98010;-83
2021/10/22 22:52:49;;;;;;;9.93;1.50;;;;;;;6.46;90.30;100187.46;6939445;84;97960;-84
2021/10/22 23:02:50;;;;;;;14.40;2.50;;;;;;;6.43;90.22;100196.95;6938851;82;98013;-85
2021/10/22 23:12:50;;;;;;;5.43;1.30;;;;;;;6.35;89.94;100206.11;6867420;84;98154;-85
2021/10/22 23:22:51;;;;;;;5.07;0.90;;;;;;;6.24;89.56;100218.72;6821751;85;98028;-85
2021/10/22 23:32:54;;;;;;;4.80;1.30;;;;;;;6.09;89.68;100250.92;6825084;85;97936;-85
2021/10/22 23:42:55;;;;;;;9.13;1.73;;;;;;;5.91;89.78;100264.70;6824119;85;98016;-84
2021/10/22 23:52:55;;;;;;;5.77;1.30;;;;;;;5.79;89.97;100277.80;6815399;85;97994;-84
